sensor_id;sensor_type;location;lat;lon;timestamp;temperature;humidity
20998;DHT22;10657;51.276;6.390;2023-09-12T00:00:06;21.20;99.90
20998;DHT22;10657;51.276;6.390;2023-09-12T00:02:33;21.20;99.90
20998;DHT22;10657;51.276;6.390;2023-09-12T00:05:00;21.10;99.90
20998;DHT22;10657;51.276;6.390;2023-09-12T00:07:26;21.30;99.90
20998;DHT22;10657;51.276;6.390;2023-09-12T00:09:53;21.50;99.90
20998;DHT22;10657;51.276;6.390;2023-09-12T00:12:22;21.40;99.90
20998;DHT22;10657;51.276;6.390;2023-09-12T00:14:49;21.20;99.90
20998;DHT22;10657;51.276;6.390;2023-09-12T00:17:16;20.90;99.90
20998;DHT22;10657;51.276;6.390;2023-09-12T00:19:43;20.90;99.90
20998;DHT22;10657;51.276;6.390;2023-09-12T00:22:10;20.90;99.90
20998;DHT22;10657;51.276;6.390;2023-09-12T00:24:36;20.70;99.90
20998;DHT22;10657;51.276;6.390;2023-09-12T00:27:04;20.70;99.90
20998;DHT22;10657;51.276;6.390;2023-09-12T00:29:32;20.80;99.90
20998;DHT22;10657;51.276;6.390;2023-09-12T00:31:59;20.90;99.90
20998;DHT22;10657;51.276;6.390;2023-09-12T00:34:25;20.90;99.90
20998;DHT22;10657;51.276;6.390;2023-09-12T00:36:52;20.90;99.90
20998;DHT22;10657;51.276;6.390;2023-09-12T00:39:19;20.90;99.90
20998;DHT22;10657;51.276;6.390;2023-09-12T00:41:46;20.70;99.90
20998;DHT22;10657;51.276;6.390;2023-09-12T00:44:12;20.70;99.90
20998;DHT22;10657;51.276;6.390;2023-09-12T00:46:40;20.70;99.90
20998;DHT22;10657;51.276;6.390;2023-09-12T00:49:08;20.80;99.90
20998;DHT22;10657;51.276;6.390;2023-09-12T00:51:35;21.00;99.90
20998;DHT22;10657;51.276;6.390;2023-09-12T00:54:03;20.80;99.90
20998;DHT22;10657;51.276;6.390;2023-09-12T00:56:30;20.70;99.90
20998;DHT22;10657;51.276;6.390;2023-09-12T00:58:57;20.60;99.90
20998;DHT22;10657;51.276;6.390;2023-09-12T01:01:24;20.60;99.90
20998;DHT22;10657;51.276;6.390;2023-09-12T01:03:51;20.60;99.90
20998;DHT22;10657;51.276;6.390;2023-09-12T01:06:22;20.60;99.90
20998;DHT22;10657;51.276;6.390;2023-09-12T01:08:50;20.60;99.90
20998;DHT22;10657;51.276;6.390;2023-09-12T01:11:17;20.60;99.90
20998;DHT22;10657;51.276;6.390;2023-09-12T01:13:44;20.60;99.90
20998;DHT22;10657;51.276;6.390;2023-09-12T01:16:11;20.60;99.90
20998;DHT22;10657;51.276;6.390;2023-09-12T01:18:38;20.60;99.90
20998;DHT22;10657;51.276;6.390;2023-09-12T01:29:31;20.70;99.90
20998;DHT22;10657;51.276;6.390;2023-09-12T01:31:58;20.70;99.90
20998;DHT22;10657;51.276;6.390;2023-09-12T01:34:26;20.50;99.90
20998;DHT22;10657;51.276;6.390;2023-09-12T01:36:53;20.40;99.90
20998;DHT22;10657;51.276;6.390;2023-09-12T01:39:20;20.50;99.90
20998;DHT22;10657;51.276;6.390;2023-09-12T01:41:48;20.70;99.90
20998;DHT22;10657;51.276;6.390;2023-09-12T01:44:17;20.70;99.90
20998;DHT22;10657;51.276;6.390;2023-09-12T01:46:45;20.80;99.90
20998;DHT22;10657;51.276;6.390;2023-09-12T01:49:13;20.90;99.90
20998;DHT22;10657;51.276;6.390;2023-09-12T01:51:42;21.00;99.90
20998;DHT22;10657;51.276;6.390;2023-09-12T01:54:10;20.90;99.90
20998;DHT22;10657;51.276;6.390;2023-09-12T01:56:37;20.70;99.90
20998;DHT22;10657;51.276;6.390;2023-09-12T01:59:05;20.80;99.90
20998;DHT22;10657;51.276;6.390;2023-09-12T02:01:32;20.60;99.90
20998;DHT22;10657;51.276;6.390;2023-09-12T02:03:59;20.70;99.90
20998;DHT22;10657;51.276;6.390;2023-09-12T02:06:25;20.70;99.90
20998;DHT22;10657;51.276;6.390;2023-09-12T02:08:52;20.70;99.90
20998;DHT22;10657;51.276;6.390;2023-09-12T02:11:19;20.70;99.90
20998;DHT22;10657;51.276;6.390;2023-09-12T02:13:46;20.70;99.90
20998;DHT22;10657;51.276;6.390;2023-09-12T02:16:12;20.60;99.90
20998;DHT22;10657;51.276;6.390;2023-09-12T02:18:39;20.50;99.90
20998;DHT22;10657;51.276;6.390;2023-09-12T02:21:06;20.50;99.90
20998;DHT22;10657;51.276;6.390;2023-09-12T02:23:33;20.80;99.90
20998;DHT22;10657;51.276;6.390;2023-09-12T02:26:00;21.00;99.90
20998;DHT22;10657;51.276;6.390;2023-09-12T02:28:27;21.20;99.90
20998;DHT22;10657;51.276;6.390;2023-09-12T02:30:53;21.00;99.90
20998;DHT22;10657;51.276;6.390;2023-09-12T02:33:20;20.90;99.90
20998;DHT22;10657;51.276;6.390;2023-09-12T02:35:48;20.60;99.90
20998;DHT22;10657;51.276;6.390;2023-09-12T02:38:14;20.40;99.90
20998;DHT22;10657;51.276;6.390;2023-09-12T02:40:41;20.50;99.90
20998;DHT22;10657;51.276;6.390;2023-09-12T02:43:08;20.60;99.90
20998;DHT22;10657;51.276;6.390;2023-09-12T02:45:35;20.60;99.90
20998;DHT22;10657;51.276;6.390;2023-09-12T02:48:01;20.50;99.90
20998;DHT22;10657;51.276;6.390;2023-09-12T02:50:29;20.50;99.90
20998;DHT22;10657;51.276;6.390;2023-09-12T02:52:55;20.50;99.90
20998;DHT22;10657;51.276;6.390;2023-09-12T02:55:22;20.40;99.90
20998;DHT22;10657;51.276;6.390;2023-09-12T02:57:48;20.40;99.90
20998;DHT22;10657;51.276;6.390;2023-09-12T03:00:15;20.40;99.90
20998;DHT22;10657;51.276;6.390;2023-09-12T03:02:42;20.40;99.90
20998;DHT22;10657;51.276;6.390;2023-09-12T03:05:09;20.30;99.90
20998;DHT22;10657;51.276;6.390;2023-09-12T03:07:36;20.40;99.90
20998;DHT22;10657;51.276;6.390;2023-09-12T03:10:02;20.30;99.90
20998;DHT22;10657;51.276;6.390;2023-09-12T03:12:30;20.30;99.90
20998;DHT22;10657;51.276;6.390;2023-09-12T03:14:57;20.30;99.90
20998;DHT22;10657;51.276;6.390;2023-09-12T03:17:23;20.20;99.90
20998;DHT22;10657;51.276;6.390;2023-09-12T03:19:50;20.30;99.90
20998;DHT22;10657;51.276;6.390;2023-09-12T03:22:17;20.20;99.90
20998;DHT22;10657;51.276;6.390;2023-09-12T03:24:44;20.20;99.90
20998;DHT22;10657;51.276;6.390;2023-09-12T03:27:11;20.10;99.90
20998;DHT22;10657;51.276;6.390;2023-09-12T03:29:38;20.10;99.90
20998;DHT22;10657;51.276;6.390;2023-09-12T03:32:05;20.10;99.90
20998;DHT22;10657;51.276;6.390;2023-09-12T03:34:32;20.20;99.90
20998;DHT22;10657;51.276;6.390;2023-09-12T03:36:59;20.10;99.90
20998;DHT22;10657;51.276;6.390;2023-09-12T03:39:25;20.20;99.90
20998;DHT22;10657;51.276;6.390;2023-09-12T03:41:52;20.10;99.90
20998;DHT22;10657;51.276;6.390;2023-09-12T03:44:19;19.90;99.90
20998;DHT22;10657;51.276;6.390;2023-09-12T03:46:46;20.10;99.90
20998;DHT22;10657;51.276;6.390;2023-09-12T03:49:12;20.10;99.90
20998;DHT22;10657;51.276;6.390;2023-09-12T03:51:39;20.10;99.90
20998;DHT22;10657;51.276;6.390;2023-09-12T03:54:06;20.00;99.90
20998;DHT22;10657;51.276;6.390;2023-09-12T03:56:32;20.10;99.90
20998;DHT22;10657;51.276;6.390;2023-09-12T03:58:59;20.10;99.90
20998;DHT22;10657;51.276;6.390;2023-09-12T04:01:28;20.00;99.90
20998;DHT22;10657;51.276;6.390;2023-09-12T04:03:55;19.90;99.90
20998;DHT22;10657;51.276;6.390;2023-09-12T04:06:22;20.00;99.90
20998;DHT22;10657;51.276;6.390;2023-09-12T04:08:48;20.00;99.90
20998;DHT22;10657;51.276;6.390;2023-09-12T04:11:15;20.00;99.90
20998;DHT22;10657;51.276;6.390;2023-09-12T04:13:45;20.00;99.90
20998;DHT22;10657;51.276;6.390;2023-09-12T04:16:12;19.90;99.90
20998;DHT22;10657;51.276;6.390;2023-09-12T04:18:39;19.90;99.90
20998;DHT22;10657;51.276;6.390;2023-09-12T04:21:05;20.00;99.90
20998;DHT22;10657;51.276;6.390;2023-09-12T04:23:32;20.00;99.90
20998;DHT22;10657;51.276;6.390;2023-09-12T04:25:59;20.10;99.90
20998;DHT22;10657;51.276;6.390;2023-09-12T04:28:29;20.10;99.90
20998;DHT22;10657;51.276;6.390;2023-09-12T04:31:03;20.00;99.90
20998;DHT22;10657;51.276;6.390;2023-09-12T04:33:30;19.90;99.90
20998;DHT22;10657;51.276;6.390;2023-09-12T04:36:00;19.80;99.90
20998;DHT22;10657;51.276;6.390;2023-09-12T04:38:26;19.90;99.90
20998;DHT22;10657;51.276;6.390;2023-09-12T04:40:56;20.00;99.90
20998;DHT22;10657;51.276;6.390;2023-09-12T04:43:24;20.00;99.90
20998;DHT22;10657;51.276;6.390;2023-09-12T04:45:50;20.10;99.90
20998;DHT22;10657;51.276;6.390;2023-09-12T04:48:17;20.00;99.90
20998;DHT22;10657;51.276;6.390;2023-09-12T04:50:44;20.00;99.90
20998;DHT22;10657;51.276;6.390;2023-09-12T04:53:11;20.00;99.90
20998;DHT22;10657;51.276;6.390;2023-09-12T04:55:38;19.90;99.90
20998;DHT22;10657;51.276;6.390;2023-09-12T04:58:05;19.90;99.90
20998;DHT22;10657;51.276;6.390;2023-09-12T05:00:33;19.90;99.90
20998;DHT22;10657;51.276;6.390;2023-09-12T05:03:01;19.80;99.90
20998;DHT22;10657;51.276;6.390;2023-09-12T05:05:30;19.80;99.90
20998;DHT22;10657;51.276;6.390;2023-09-12T05:07:57;19.80;99.90
20998;DHT22;10657;51.276;6.390;2023-09-12T05:10:23;19.80;99.90
20998;DHT22;10657;51.276;6.390;2023-09-12T05:12:50;19.90;99.90
20998;DHT22;10657;51.276;6.390;2023-09-12T05:15:17;19.80;99.90
20998;DHT22;10657;51.276;6.390;2023-09-12T05:17:44;19.70;99.90
20998;DHT22;10657;51.276;6.390;2023-09-12T05:20:11;19.60;99.90
20998;DHT22;10657;51.276;6.390;2023-09-12T05:22:37;19.70;99.90
20998;DHT22;10657;51.276;6.390;2023-09-12T05:25:04;19.70;99.90
20998;DHT22;10657;51.276;6.390;2023-09-12T05:27:31;19.60;99.90
20998;DHT22;10657;51.276;6.390;2023-09-12T05:29:58;19.60;99.90
20998;DHT22;10657;51.276;6.390;2023-09-12T05:32:25;19.60;99.90
20998;DHT22;10657;51.276;6.390;2023-09-12T05:34:51;19.50;99.90
20998;DHT22;10657;51.276;6.390;2023-09-12T05:37:28;19.60;99.90
20998;DHT22;10657;51.276;6.390;2023-09-12T05:39:55;19.60;99.90
20998;DHT22;10657;51.276;6.390;2023-09-12T05:42:22;19.70;99.90
20998;DHT22;10657;51.276;6.390;2023-09-12T05:44:49;19.70;99.90
20998;DHT22;10657;51.276;6.390;2023-09-12T05:47:16;19.70;99.90
20998;DHT22;10657;51.276;6.390;2023-09-12T05:49:43;19.60;99.90
20998;DHT22;10657;51.276;6.390;2023-09-12T05:52:09;19.60;99.90
20998;DHT22;10657;51.276;6.390;2023-09-12T05:54:38;19.60;99.90
20998;DHT22;10657;51.276;6.390;2023-09-12T05:57:05;19.70;99.90
20998;DHT22;10657;51.276;6.390;2023-09-12T05:59:35;19.60;99.90
20998;DHT22;10657;51.276;6.390;2023-09-12T06:02:03;19.50;99.90
20998;DHT22;10657;51.276;6.390;2023-09-12T06:04:31;19.70;99.90
20998;DHT22;10657;51.276;6.390;2023-09-12T06:06:58;19.80;99.90
20998;DHT22;10657;51.276;6.390;2023-09-12T06:09:26;19.70;99.90
20998;DHT22;10657;51.276;6.390;2023-09-12T06:11:54;19.60;99.90
20998;DHT22;10657;51.276;6.390;2023-09-12T06:14:21;19.70;99.90
20998;DHT22;10657;51.276;6.390;2023-09-12T06:16:48;19.70;99.90
20998;DHT22;10657;51.276;6.390;2023-09-12T06:19:15;19.70;99.90
20998;DHT22;10657;51.276;6.390;2023-09-12T06:21:42;19.80;99.90
20998;DHT22;10657;51.276;6.390;2023-09-12T06:26:39;19.80;99.90
20998;DHT22;10657;51.276;6.390;2023-09-12T06:29:07;19.80;99.90
20998;DHT22;10657;51.276;6.390;2023-09-12T06:31:34;19.90;99.90
20998;DHT22;10657;51.276;6.390;2023-09-12T06:34:02;19.90;99.90
20998;DHT22;10657;51.276;6.390;2023-09-12T06:36:29;19.80;99.90
20998;DHT22;10657;51.276;6.390;2023-09-12T06:38:56;19.80;99.90
20998;DHT22;10657;51.276;6.390;2023-09-12T06:41:23;19.80;99.90
20998;DHT22;10657;51.276;6.390;2023-09-12T06:43:50;19.80;99.90
20998;DHT22;10657;51.276;6.390;2023-09-12T06:46:17;19.80;99.90
20998;DHT22;10657;51.276;6.390;2023-09-12T06:48:44;19.80;99.90
20998;DHT22;10657;51.276;6.390;2023-09-12T06:51:12;19.80;99.90
20998;DHT22;10657;51.276;6.390;2023-09-12T06:53:43;19.80;99.90
20998;DHT22;10657;51.276;6.390;2023-09-12T06:56:10;19.80;99.90
20998;DHT22;10657;51.276;6.390;2023-09-12T06:58:37;19.80;99.90
20998;DHT22;10657;51.276;6.390;2023-09-12T07:01:05;19.90;99.90
20998;DHT22;10657;51.276;6.390;2023-09-12T07:03:33;19.90;99.90
20998;DHT22;10657;51.276;6.390;2023-09-12T07:06:00;20.00;99.90
20998;DHT22;10657;51.276;6.390;2023-09-12T07:08:29;20.00;99.90
20998;DHT22;10657;51.276;6.390;2023-09-12T07:10:56;20.10;99.90
20998;DHT22;10657;51.276;6.390;2023-09-12T07:13:24;20.10;99.90
20998;DHT22;10657;51.276;6.390;2023-09-12T07:15:51;20.10;99.90
20998;DHT22;10657;51.276;6.390;2023-09-12T07:18:17;20.10;99.90
20998;DHT22;10657;51.276;6.390;2023-09-12T07:20:45;20.20;99.90
20998;DHT22;10657;51.276;6.390;2023-09-12T07:23:12;20.20;99.90
20998;DHT22;10657;51.276;6.390;2023-09-12T07:25:40;20.10;99.90
20998;DHT22;10657;51.276;6.390;2023-09-12T07:28:08;20.00;99.90
20998;DHT22;10657;51.276;6.390;2023-09-12T07:30:35;19.90;99.90
20998;DHT22;10657;51.276;6.390;2023-09-12T07:33:03;19.90;99.90
20998;DHT22;10657;51.276;6.390;2023-09-12T07:35:31;20.00;99.90
20998;DHT22;10657;51.276;6.390;2023-09-12T07:37:57;20.10;99.90
20998;DHT22;10657;51.276;6.390;2023-09-12T07:40:24;20.00;99.90
20998;DHT22;10657;51.276;6.390;2023-09-12T07:42:51;20.10;99.90
20998;DHT22;10657;51.276;6.390;2023-09-12T07:45:17;20.20;99.90
20998;DHT22;10657;51.276;6.390;2023-09-12T07:47:44;20.30;99.90
20998;DHT22;10657;51.276;6.390;2023-09-12T07:50:11;20.40;99.90
20998;DHT22;10657;51.276;6.390;2023-09-12T07:52:37;20.40;99.90
20998;DHT22;10657;51.276;6.390;2023-09-12T07:55:05;20.50;99.90
20998;DHT22;10657;51.276;6.390;2023-09-12T07:57:31;20.40;99.90
20998;DHT22;10657;51.276;6.390;2023-09-12T07:59:58;20.50;99.90
20998;DHT22;10657;51.276;6.390;2023-09-12T08:02:25;20.40;99.90
20998;DHT22;10657;51.276;6.390;2023-09-12T08:04:52;20.40;99.90
20998;DHT22;10657;51.276;6.390;2023-09-12T08:07:20;20.50;99.90
20998;DHT22;10657;51.276;6.390;2023-09-12T08:09:55;20.40;99.90
20998;DHT22;10657;51.276;6.390;2023-09-12T08:12:25;20.40;99.90
20998;DHT22;10657;51.276;6.390;2023-09-12T08:14:59;20.40;99.90
20998;DHT22;10657;51.276;6.390;2023-09-12T08:17:26;20.40;99.90
20998;DHT22;10657;51.276;6.390;2023-09-12T08:19:53;20.50;99.90
20998;DHT22;10657;51.276;6.390;2023-09-12T08:22:20;20.40;99.90
20998;DHT22;10657;51.276;6.390;2023-09-12T08:24:46;20.50;99.90
20998;DHT22;10657;51.276;6.390;2023-09-12T08:27:13;20.50;99.90
20998;DHT22;10657;51.276;6.390;2023-09-12T08:29:40;20.60;99.90
20998;DHT22;10657;51.276;6.390;2023-09-12T08:32:08;20.60;99.90
20998;DHT22;10657;51.276;6.390;2023-09-12T08:34:35;20.60;99.90
20998;DHT22;10657;51.276;6.390;2023-09-12T08:37:02;20.60;99.90
20998;DHT22;10657;51.276;6.390;2023-09-12T08:39:43;20.60;99.90
20998;DHT22;10657;51.276;6.390;2023-09-12T08:42:15;20.70;99.90
20998;DHT22;10657;51.276;6.390;2023-09-12T08:44:43;20.80;99.90
20998;DHT22;10657;51.276;6.390;2023-09-12T08:47:11;20.80;99.90
20998;DHT22;10657;51.276;6.390;2023-09-12T08:49:38;20.90;99.90
20998;DHT22;10657;51.276;6.390;2023-09-12T08:52:05;20.90;99.90
20998;DHT22;10657;51.276;6.390;2023-09-12T08:54:32;20.90;99.90
20998;DHT22;10657;51.276;6.390;2023-09-12T08:57:03;20.90;99.90
20998;DHT22;10657;51.276;6.390;2023-09-12T08:59:34;20.90;99.90
20998;DHT22;10657;51.276;6.390;2023-09-12T09:02:03;21.00;99.90
20998;DHT22;10657;51.276;6.390;2023-09-12T09:04:33;20.90;99.90
20998;DHT22;10657;51.276;6.390;2023-09-12T09:07:01;21.10;99.90
20998;DHT22;10657;51.276;6.390;2023-09-12T09:09:30;21.20;99.90
20998;DHT22;10657;51.276;6.390;2023-09-12T09:11:57;21.20;99.90
20998;DHT22;10657;51.276;6.390;2023-09-12T09:14:23;21.20;99.90
20998;DHT22;10657;51.276;6.390;2023-09-12T09:16:51;21.20;99.90
20998;DHT22;10657;51.276;6.390;2023-09-12T09:19:18;21.20;99.90
20998;DHT22;10657;51.276;6.390;2023-09-12T09:21:46;21.20;99.90
20998;DHT22;10657;51.276;6.390;2023-09-12T09:24:14;21.20;99.90
20998;DHT22;10657;51.276;6.390;2023-09-12T09:26:48;21.10;99.90
20998;DHT22;10657;51.276;6.390;2023-09-12T09:29:20;21.20;99.90
20998;DHT22;10657;51.276;6.390;2023-09-12T09:31:48;21.30;99.90
20998;DHT22;10657;51.276;6.390;2023-09-12T09:34:18;21.30;99.90
20998;DHT22;10657;51.276;6.390;2023-09-12T09:36:53;21.30;99.90
20998;DHT22;10657;51.276;6.390;2023-09-12T09:39:22;21.30;99.90
20998;DHT22;10657;51.276;6.390;2023-09-12T09:41:54;21.50;99.90
20998;DHT22;10657;51.276;6.390;2023-09-12T09:44:25;21.60;99.90
20998;DHT22;10657;51.276;6.390;2023-09-12T09:46:59;21.60;99.90
20998;DHT22;10657;51.276;6.390;2023-09-12T09:49:32;21.70;99.90
20998;DHT22;10657;51.276;6.390;2023-09-12T09:52:05;21.70;99.90
20998;DHT22;10657;51.276;6.390;2023-09-12T09:54:32;21.70;99.90
20998;DHT22;10657;51.276;6.390;2023-09-12T09:56:59;21.80;99.90
20998;DHT22;10657;51.276;6.390;2023-09-12T09:59:27;21.90;99.90
20998;DHT22;10657;51.276;6.390;2023-09-12T10:01:58;21.90;99.90
20998;DHT22;10657;51.276;6.390;2023-09-12T10:04:27;21.90;99.90
20998;DHT22;10657;51.276;6.390;2023-09-12T10:06:58;21.90;99.90
20998;DHT22;10657;51.276;6.390;2023-09-12T10:09:26;21.90;99.90
20998;DHT22;10657;51.276;6.390;2023-09-12T10:11:55;22.00;99.90
20998;DHT22;10657;51.276;6.390;2023-09-12T10:14:22;22.20;99.90
20998;DHT22;10657;51.276;6.390;2023-09-12T10:16:50;22.30;99.90
20998;DHT22;10657;51.276;6.390;2023-09-12T10:19:31;22.40;99.90
20998;DHT22;10657;51.276;6.390;2023-09-12T10:24:44;22.30;99.90
20998;DHT22;10657;51.276;6.390;2023-09-12T10:27:12;22.40;99.90
20998;DHT22;10657;51.276;6.390;2023-09-12T10:29:40;22.50;99.90
20998;DHT22;10657;51.276;6.390;2023-09-12T10:32:06;22.60;99.90
20998;DHT22;10657;51.276;6.390;2023-09-12T10:34:34;22.60;99.90
20998;DHT22;10657;51.276;6.390;2023-09-12T10:37:03;22.60;99.90
20998;DHT22;10657;51.276;6.390;2023-09-12T10:39:32;22.80;99.90
20998;DHT22;10657;51.276;6.390;2023-09-12T10:41:59;22.80;99.90
20998;DHT22;10657;51.276;6.390;2023-09-12T10:44:28;22.90;99.90
20998;DHT22;10657;51.276;6.390;2023-09-12T10:46:55;22.90;99.90
20998;DHT22;10657;51.276;6.390;2023-09-12T10:49:22;23.10;99.90
20998;DHT22;10657;51.276;6.390;2023-09-12T10:51:53;23.00;99.90
20998;DHT22;10657;51.276;6.390;2023-09-12T10:54:24;23.10;99.90
20998;DHT22;10657;51.276;6.390;2023-09-12T10:57:09;23.10;99.90
20998;DHT22;10657;51.276;6.390;2023-09-12T11:02:31;22.90;99.90
20998;DHT22;10657;51.276;6.390;2023-09-12T11:04:59;23.00;99.90
20998;DHT22;10657;51.276;6.390;2023-09-12T11:10:29;23.10;99.90
20998;DHT22;10657;51.276;6.390;2023-09-12T11:12:58;23.30;99.90
20998;DHT22;10657;51.276;6.390;2023-09-12T11:15:27;23.40;99.90
20998;DHT22;10657;51.276;6.390;2023-09-12T11:18:05;23.40;99.90
20998;DHT22;10657;51.276;6.390;2023-09-12T11:21:00;23.60;99.90
20998;DHT22;10657;51.276;6.390;2023-09-12T11:23:30;23.60;99.90
20998;DHT22;10657;51.276;6.390;2023-09-12T11:26:07;23.70;99.90
20998;DHT22;10657;51.276;6.390;2023-09-12T11:28:34;23.90;99.90
20998;DHT22;10657;51.276;6.390;2023-09-12T11:31:01;23.90;99.90
20998;DHT22;10657;51.276;6.390;2023-09-12T11:33:28;24.10;99.90
20998;DHT22;10657;51.276;6.390;2023-09-12T11:35:56;24.20;99.90
20998;DHT22;10657;51.276;6.390;2023-09-12T11:38:31;24.30;99.90
20998;DHT22;10657;51.276;6.390;2023-09-12T11:40:58;24.40;99.90
20998;DHT22;10657;51.276;6.390;2023-09-12T11:43:26;24.30;99.90
20998;DHT22;10657;51.276;6.390;2023-09-12T11:45:55;24.30;99.90
20998;DHT22;10657;51.276;6.390;2023-09-12T11:48:22;24.40;99.90
20998;DHT22;10657;51.276;6.390;2023-09-12T11:50:51;24.70;99.90
20998;DHT22;10657;51.276;6.390;2023-09-12T11:53:21;24.70;99.90
20998;DHT22;10657;51.276;6.390;2023-09-12T11:55:52;24.60;99.90
20998;DHT22;10657;51.276;6.390;2023-09-12T11:58:19;24.50;99.90
20998;DHT22;10657;51.276;6.390;2023-09-12T12:00:51;24.60;99.90
20998;DHT22;10657;51.276;6.390;2023-09-12T12:03:21;24.80;99.90
20998;DHT22;10657;51.276;6.390;2023-09-12T12:05:49;25.20;99.90
20998;DHT22;10657;51.276;6.390;2023-09-12T12:08:17;25.40;99.90
20998;DHT22;10657;51.276;6.390;2023-09-12T12:10:51;25.40;99.90
20998;DHT22;10657;51.276;6.390;2023-09-12T12:13:19;25.50;99.90
20998;DHT22;10657;51.276;6.390;2023-09-12T12:15:46;25.60;99.90
20998;DHT22;10657;51.276;6.390;2023-09-12T12:18:13;25.50;99.90
20998;DHT22;10657;51.276;6.390;2023-09-12T12:20:40;25.30;99.90
20998;DHT22;10657;51.276;6.390;2023-09-12T12:23:07;25.00;99.90
20998;DHT22;10657;51.276;6.390;2023-09-12T12:25:35;24.80;99.90
20998;DHT22;10657;51.276;6.390;2023-09-12T12:28:03;24.70;99.90
20998;DHT22;10657;51.276;6.390;2023-09-12T12:30:34;24.90;99.90
20998;DHT22;10657;51.276;6.390;2023-09-12T12:33:07;25.30;99.90
20998;DHT22;10657;51.276;6.390;2023-09-12T12:36:04;25.40;99.90
20998;DHT22;10657;51.276;6.390;2023-09-12T12:38:38;25.80;99.90
20998;DHT22;10657;51.276;6.390;2023-09-12T12:41:26;25.90;99.90
20998;DHT22;10657;51.276;6.390;2023-09-12T12:44:01;26.30;99.90
20998;DHT22;10657;51.276;6.390;2023-09-12T12:46:30;26.40;99.90
20998;DHT22;10657;51.276;6.390;2023-09-12T12:48:56;26.30;99.90
20998;DHT22;10657;51.276;6.390;2023-09-12T12:51:25;26.40;99.90
20998;DHT22;10657;51.276;6.390;2023-09-12T12:54:02;26.70;99.90
20998;DHT22;10657;51.276;6.390;2023-09-12T12:56:29;26.70;99.90
20998;DHT22;10657;51.276;6.390;2023-09-12T12:58:59;26.50;99.90
20998;DHT22;10657;51.276;6.390;2023-09-12T13:01:29;26.70;99.90
20998;DHT22;10657;51.276;6.390;2023-09-12T13:03:56;26.80;99.90
20998;DHT22;10657;51.276;6.390;2023-09-12T13:06:23;26.80;99.90
20998;DHT22;10657;51.276;6.390;2023-09-12T13:08:52;26.80;99.90
20998;DHT22;10657;51.276;6.390;2023-09-12T13:11:18;26.90;99.90
20998;DHT22;10657;51.276;6.390;2023-09-12T13:13:47;27.10;99.90
20998;DHT22;10657;51.276;6.390;2023-09-12T13:16:14;26.80;99.90
20998;DHT22;10657;51.276;6.390;2023-09-12T13:18:42;26.60;99.90
20998;DHT22;10657;51.276;6.390;2023-09-12T13:21:09;26.80;99.90
20998;DHT22;10657;51.276;6.390;2023-09-12T13:23:37;27.00;99.90
20998;DHT22;10657;51.276;6.390;2023-09-12T13:26:07;27.20;99.90
20998;DHT22;10657;51.276;6.390;2023-09-12T13:28:34;27.40;99.90
20998;DHT22;10657;51.276;6.390;2023-09-12T13:31:01;27.50;99.90
20998;DHT22;10657;51.276;6.390;2023-09-12T13:33:27;27.50;99.90
20998;DHT22;10657;51.276;6.390;2023-09-12T13:35:54;28.00;99.90
20998;DHT22;10657;51.276;6.390;2023-09-12T13:38:21;27.80;99.90
20998;DHT22;10657;51.276;6.390;2023-09-12T13:40:49;27.80;99.90
20998;DHT22;10657;51.276;6.390;2023-09-12T13:43:16;28.00;99.90
20998;DHT22;10657;51.276;6.390;2023-09-12T13:45:43;27.20;99.90
20998;DHT22;10657;51.276;6.390;2023-09-12T13:48:09;27.20;99.90
20998;DHT22;10657;51.276;6.390;2023-09-12T13:50:38;27.00;99.90
20998;DHT22;10657;51.276;6.390;2023-09-12T13:53:05;26.40;99.90
20998;DHT22;10657;51.276;6.390;2023-09-12T13:55:34;26.30;99.90
20998;DHT22;10657;51.276;6.390;2023-09-12T13:58:14;26.30;99.90
20998;DHT22;10657;51.276;6.390;2023-09-12T14:00:41;26.50;99.90
20998;DHT22;10657;51.276;6.390;2023-09-12T14:03:08;26.70;99.90
20998;DHT22;10657;51.276;6.390;2023-09-12T14:05:35;27.00;99.90
20998;DHT22;10657;51.276;6.390;2023-09-12T14:08:02;27.20;99.90
20998;DHT22;10657;51.276;6.390;2023-09-12T14:10:30;26.80;99.90
20998;DHT22;10657;51.276;6.390;2023-09-12T14:13:03;26.60;99.90
20998;DHT22;10657;51.276;6.390;2023-09-12T14:15:46;26.60;99.90
20998;DHT22;10657;51.276;6.390;2023-09-12T14:18:14;26.50;99.90
20998;DHT22;10657;51.276;6.390;2023-09-12T14:20:42;26.70;99.90
20998;DHT22;10657;51.276;6.390;2023-09-12T14:23:09;27.00;99.90
20998;DHT22;10657;51.276;6.390;2023-09-12T14:25:36;27.20;99.90
20998;DHT22;10657;51.276;6.390;2023-09-12T14:28:04;26.80;99.90
20998;DHT22;10657;51.276;6.390;2023-09-12T14:30:31;26.80;99.90
20998;DHT22;10657;51.276;6.390;2023-09-12T14:33:03;26.80;99.90
20998;DHT22;10657;51.276;6.390;2023-09-12T14:35:30;26.90;99.90
20998;DHT22;10657;51.276;6.390;2023-09-12T14:37:56;26.70;99.90
20998;DHT22;10657;51.276;6.390;2023-09-12T14:40:25;26.70;99.90
20998;DHT22;10657;51.276;6.390;2023-09-12T14:42:53;26.80;99.90
20998;DHT22;10657;51.276;6.390;2023-09-12T14:45:20;26.50;99.90
20998;DHT22;10657;51.276;6.390;2023-09-12T14:47:47;26.30;99.90
20998;DHT22;10657;51.276;6.390;2023-09-12T14:50:14;26.30;99.90
20998;DHT22;10657;51.276;6.390;2023-09-12T14:52:41;26.60;99.90
20998;DHT22;10657;51.276;6.390;2023-09-12T14:55:09;26.30;99.90
20998;DHT22;10657;51.276;6.390;2023-09-12T14:57:36;26.10;99.90
20998;DHT22;10657;51.276;6.390;2023-09-12T15:00:04;26.40;99.90
20998;DHT22;10657;51.276;6.390;2023-09-12T15:02:31;26.60;99.90
20998;DHT22;10657;51.276;6.390;2023-09-12T15:05:00;26.70;99.90
20998;DHT22;10657;51.276;6.390;2023-09-12T15:07:27;26.60;99.90
20998;DHT22;10657;51.276;6.390;2023-09-12T15:09:57;26.70;99.90
20998;DHT22;10657;51.276;6.390;2023-09-12T15:12:24;26.90;99.90
20998;DHT22;10657;51.276;6.390;2023-09-12T15:14:51;27.20;99.90
20998;DHT22;10657;51.276;6.390;2023-09-12T15:17:18;27.20;99.90
20998;DHT22;10657;51.276;6.390;2023-09-12T15:19:46;27.20;99.90
20998;DHT22;10657;51.276;6.390;2023-09-12T15:22:12;27.20;99.90
20998;DHT22;10657;51.276;6.390;2023-09-12T15:24:42;27.10;99.90
20998;DHT22;10657;51.276;6.390;2023-09-12T15:27:09;26.50;99.90
20998;DHT22;10657;51.276;6.390;2023-09-12T15:29:36;26.70;99.90
20998;DHT22;10657;51.276;6.390;2023-09-12T15:32:03;26.80;99.90
20998;DHT22;10657;51.276;6.390;2023-09-12T15:34:30;26.90;99.90
20998;DHT22;10657;51.276;6.390;2023-09-12T15:37:07;27.20;99.90
20998;DHT22;10657;51.276;6.390;2023-09-12T15:39:48;27.20;99.90
20998;DHT22;10657;51.276;6.390;2023-09-12T15:42:15;27.10;99.90
20998;DHT22;10657;51.276;6.390;2023-09-12T15:44:58;27.10;99.90
20998;DHT22;10657;51.276;6.390;2023-09-12T15:47:29;27.10;99.90
20998;DHT22;10657;51.276;6.390;2023-09-12T15:49:56;26.60;99.90
20998;DHT22;10657;51.276;6.390;2023-09-12T15:52:23;26.20;99.90
20998;DHT22;10657;51.276;6.390;2023-09-12T15:54:50;25.90;99.90